Aviation Digital Data Service (ADDS)

Output produced by METARs form (0413 UTC 24 April 2014)
found at http://www.aviationweather.gov/adds/metars/
 
KROW 240351Z AUTO 24008KT 10SM CLR 22/M09 A2974 RMK AO2 SLP008 T02221089
KROW 240251Z AUTO 24015KT 10SM CLR 25/M09 A2970 RMK AO2 PK WND 24027/0232 SLP995 T02501094 53022
KROW 240151Z 25019KT 10SM CLR 27/M11 A2966 RMK AO2 PK WND 25028/0115 SLP983 T02671111
KROW 240051Z 23016G22KT 10SM CLR 29/M12 A2964 RMK AO2 PK WND 24030/0019 SLP974 T02891117
KROW 232351Z 23019G26KT 10SM CLR 31/M12 A2962 RMK AO2 PK WND 22032/2314 SLP967 T03061117 10322 20289 55014
KROW 232251Z 23024G36KT 10SM CLR 32/M11 A2962 RMK AO2 PK WND 22036/2249 SLP963 T03171106
KROW 232151Z 21024G31KT 10SM CLR 32/M10 A2964 RMK AO2 PK WND 22037/2122 SLP969 T03171100
KROW 232051Z COR 24017G24KT 10SM CLR 32/M12 A2967 RMK AO2 PK WND 23027/2033 SLP979 T03171122 58027
KROW 231951Z 23015G24KT 10SM CLR 32/M11 A2971 RMK AO2 PK WND 23027/1923 SLP989 T03171111
KROW 231851Z 24016KT 10SM CLR 31/M11 A2973 RMK AO2 PK WND 21030/1828 SLP000 T03111106
KROW 231751Z 20009G19KT 10SM CLR 28/M07 A2976 RMK AO2 PK WND 24027/1737 SLP014 T02831072 10294 20167 58021
KROW 231651Z 25015G24KT 10SM CLR 28/M04 A2980 RMK AO2 SLP023 T02831044
KROW 231551Z 18014KT 10SM CLR 23/08 A2982 RMK AO2 SLP037 T02330078
KROW 231451Z 17014KT 10SM CLR 20/09 A2983 RMK AO2 SLP042 T02000089 51010
KROW 231351Z 17013KT 10SM CLR 18/09 A2983 RMK AO2 SLP042 T01830089
KROW 231251Z 16013KT 10SM CLR 17/08 A2982 RMK AO2 SLP037 T01720083
KROW 231151Z AUTO 18013KT 10SM CLR 17/08 A2980 RMK AO2 SLP028 T01720078 10211 20172 55003
KROW 231051Z AUTO 18011KT 10SM CLR 18/07 A2979 RMK AO2 SLP026 T01780072
KROW 230951Z AUTO 16014KT 10SM CLR 18/07 A2980 RMK AO2 SLP026 T01830072
KROW 230851Z AUTO 15013KT 10SM CLR 19/07 A2981 RMK AO2 SLP027 T01940067 58017
KROW 230751Z AUTO 17014KT 10SM CLR 20/06 A2985 RMK AO2 SLP044 T02000061
KROW 230651Z AUTO 19010KT 10SM CLR 19/06 A2987 RMK AO2 SLP054 T01890061 403060106
KROW 230551Z AUTO 19010KT 10SM CLR 19/06 A2986 RMK AO2 SLP053 T01890061 10289 20183 50001
KROW 230451Z AUTO 17012KT 10SM CLR 21/07 A2987 RMK AO2 SLP054 T02110067
KROW 240408Z 2404/2424 24008KT P6SM SKC 
     FM240700 31015KT P6SM SKC 
     FM241400 35013KT P6SM SKC 
     FM241700 01010KT P6SM SKC 
     FM242000 08007KT P6SM SKC 
     FM242300 15012G18KT P6SM SKC